sensor_id;sensor_type;location;lat;lon;timestamp;temperature;humidity
17845;DHT22;9047;53.486;10.218;2023-02-19T00:02:06;4.70;99.90
17845;DHT22;9047;53.486;10.218;2023-02-19T00:04:36;4.70;99.90
17845;DHT22;9047;53.486;10.218;2023-02-19T00:07:22;4.70;99.90
17845;DHT22;9047;53.486;10.218;2023-02-19T00:09:50;4.70;99.90
17845;DHT22;9047;53.486;10.218;2023-02-19T00:12:20;4.70;99.90
17845;DHT22;9047;53.486;10.218;2023-02-19T00:14:52;4.70;99.90
17845;DHT22;9047;53.486;10.218;2023-02-19T00:17:20;4.70;99.90
17845;DHT22;9047;53.486;10.218;2023-02-19T00:19:58;4.70;99.90
17845;DHT22;9047;53.486;10.218;2023-02-19T00:22:31;4.70;99.90
17845;DHT22;9047;53.486;10.218;2023-02-19T00:25:00;4.60;99.90
17845;DHT22;9047;53.486;10.218;2023-02-19T00:27:31;4.60;99.90
17845;DHT22;9047;53.486;10.218;2023-02-19T00:30:00;4.60;99.90
17845;DHT22;9047;53.486;10.218;2023-02-19T00:32:30;4.60;99.90
17845;DHT22;9047;53.486;10.218;2023-02-19T00:34:57;4.60;99.90
17845;DHT22;9047;53.486;10.218;2023-02-19T00:37:32;4.60;99.90
17845;DHT22;9047;53.486;10.218;2023-02-19T00:40:05;4.60;99.90
17845;DHT22;9047;53.486;10.218;2023-02-19T00:42:33;4.60;99.90
17845;DHT22;9047;53.486;10.218;2023-02-19T00:45:09;4.60;99.90
17845;DHT22;9047;53.486;10.218;2023-02-19T00:47:36;4.60;99.90
17845;DHT22;9047;53.486;10.218;2023-02-19T00:50:09;4.70;99.90
17845;DHT22;9047;53.486;10.218;2023-02-19T00:52:39;4.60;99.90
17845;DHT22;9047;53.486;10.218;2023-02-19T00:55:07;4.60;99.90
17845;DHT22;9047;53.486;10.218;2023-02-19T00:57:35;4.60;99.90
17845;DHT22;9047;53.486;10.218;2023-02-19T01:00:04;4.60;99.90
17845;DHT22;9047;53.486;10.218;2023-02-19T01:02:33;4.60;99.90
17845;DHT22;9047;53.486;10.218;2023-02-19T01:05:04;4.60;99.90
17845;DHT22;9047;53.486;10.218;2023-02-19T01:07:35;4.60;99.90
17845;DHT22;9047;53.486;10.218;2023-02-19T01:10:13;4.60;99.90
17845;DHT22;9047;53.486;10.218;2023-02-19T01:12:41;4.60;99.90
17845;DHT22;9047;53.486;10.218;2023-02-19T01:15:15;4.60;99.90
17845;DHT22;9047;53.486;10.218;2023-02-19T01:17:45;4.60;99.90
17845;DHT22;9047;53.486;10.218;2023-02-19T01:20:15;4.60;99.90
17845;DHT22;9047;53.486;10.218;2023-02-19T01:22:43;4.60;99.90
17845;DHT22;9047;53.486;10.218;2023-02-19T01:25:15;4.60;99.90
17845;DHT22;9047;53.486;10.218;2023-02-19T01:27:42;4.60;99.90
17845;DHT22;9047;53.486;10.218;2023-02-19T01:30:11;4.60;99.90
17845;DHT22;9047;53.486;10.218;2023-02-19T01:32:39;4.60;99.90
17845;DHT22;9047;53.486;10.218;2023-02-19T01:35:07;4.60;99.90
17845;DHT22;9047;53.486;10.218;2023-02-19T01:37:35;4.60;99.90
17845;DHT22;9047;53.486;10.218;2023-02-19T01:40:05;4.60;99.90
17845;DHT22;9047;53.486;10.218;2023-02-19T01:42:41;4.60;99.90
17845;DHT22;9047;53.486;10.218;2023-02-19T01:45:20;4.60;99.90
17845;DHT22;9047;53.486;10.218;2023-02-19T01:48:10;4.60;99.90
17845;DHT22;9047;53.486;10.218;2023-02-19T01:50:47;4.60;99.90
17845;DHT22;9047;53.486;10.218;2023-02-19T01:53:19;4.60;99.90
17845;DHT22;9047;53.486;10.218;2023-02-19T01:55:53;4.60;99.90
17845;DHT22;9047;53.486;10.218;2023-02-19T01:58:30;4.60;99.90
17845;DHT22;9047;53.486;10.218;2023-02-19T02:01:14;4.60;99.90
17845;DHT22;9047;53.486;10.218;2023-02-19T02:03:46;4.70;99.90
17845;DHT22;9047;53.486;10.218;2023-02-19T02:06:19;4.70;99.90
17845;DHT22;9047;53.486;10.218;2023-02-19T02:08:50;4.70;99.90
17845;DHT22;9047;53.486;10.218;2023-02-19T02:11:35;4.70;99.90
17845;DHT22;9047;53.486;10.218;2023-02-19T02:14:20;4.60;99.90
17845;DHT22;9047;53.486;10.218;2023-02-19T02:17:08;4.60;99.90
17845;DHT22;9047;53.486;10.218;2023-02-19T02:20:01;4.50;99.90
17845;DHT22;9047;53.486;10.218;2023-02-19T02:22:33;4.40;99.90
17845;DHT22;9047;53.486;10.218;2023-02-19T02:28:26;4.40;99.90
17845;DHT22;9047;53.486;10.218;2023-02-19T02:31:03;4.30;99.90
17845;DHT22;9047;53.486;10.218;2023-02-19T02:33:38;4.30;99.90
17845;DHT22;9047;53.486;10.218;2023-02-19T02:36:09;4.20;99.90
17845;DHT22;9047;53.486;10.218;2023-02-19T02:38:53;4.40;99.90
17845;DHT22;9047;53.486;10.218;2023-02-19T02:41:22;4.20;99.90
17845;DHT22;9047;53.486;10.218;2023-02-19T02:43:56;4.10;99.90
17845;DHT22;9047;53.486;10.218;2023-02-19T02:46:35;4.00;99.90
17845;DHT22;9047;53.486;10.218;2023-02-19T02:49:05;4.00;99.90
17845;DHT22;9047;53.486;10.218;2023-02-19T02:51:52;4.00;99.90
17845;DHT22;9047;53.486;10.218;2023-02-19T02:54:25;3.90;99.90
17845;DHT22;9047;53.486;10.218;2023-02-19T02:57:13;3.90;99.90
17845;DHT22;9047;53.486;10.218;2023-02-19T02:59:45;3.90;99.90
17845;DHT22;9047;53.486;10.218;2023-02-19T03:02:19;3.90;99.90
17845;DHT22;9047;53.486;10.218;2023-02-19T03:04:52;3.90;99.90
17845;DHT22;9047;53.486;10.218;2023-02-19T03:07:41;3.80;99.90
17845;DHT22;9047;53.486;10.218;2023-02-19T03:10:13;3.80;99.90
17845;DHT22;9047;53.486;10.218;2023-02-19T03:12:44;3.80;99.90
17845;DHT22;9047;53.486;10.218;2023-02-19T03:15:32;3.80;99.90
17845;DHT22;9047;53.486;10.218;2023-02-19T03:18:26;3.70;99.90
17845;DHT22;9047;53.486;10.218;2023-02-19T03:21:18;3.80;99.90
17845;DHT22;9047;53.486;10.218;2023-02-19T03:23:49;3.70;99.90
17845;DHT22;9047;53.486;10.218;2023-02-19T03:26:37;3.60;99.90
17845;DHT22;9047;53.486;10.218;2023-02-19T03:29:05;3.60;99.90
17845;DHT22;9047;53.486;10.218;2023-02-19T03:31:54;3.60;99.90
17845;DHT22;9047;53.486;10.218;2023-02-19T03:34:25;3.70;99.90
17845;DHT22;9047;53.486;10.218;2023-02-19T03:36:59;3.70;99.90
17845;DHT22;9047;53.486;10.218;2023-02-19T03:39:27;3.70;99.90
17845;DHT22;9047;53.486;10.218;2023-02-19T03:42:01;3.70;99.90
17845;DHT22;9047;53.486;10.218;2023-02-19T03:44:41;3.60;99.90
17845;DHT22;9047;53.486;10.218;2023-02-19T03:47:14;3.70;99.90
17845;DHT22;9047;53.486;10.218;2023-02-19T03:49:53;3.60;99.90
17845;DHT22;9047;53.486;10.218;2023-02-19T03:52:36;3.60;99.90
17845;DHT22;9047;53.486;10.218;2023-02-19T03:55:11;3.60;99.90
17845;DHT22;9047;53.486;10.218;2023-02-19T03:57:50;3.70;99.90
17845;DHT22;9047;53.486;10.218;2023-02-19T04:00:21;3.60;99.90
17845;DHT22;9047;53.486;10.218;2023-02-19T04:03:01;3.60;99.90
17845;DHT22;9047;53.486;10.218;2023-02-19T04:05:44;3.70;99.90
17845;DHT22;9047;53.486;10.218;2023-02-19T04:08:16;3.60;99.90
17845;DHT22;9047;53.486;10.218;2023-02-19T04:10:48;3.60;99.90
17845;DHT22;9047;53.486;10.218;2023-02-19T04:13:21;3.60;99.90
17845;DHT22;9047;53.486;10.218;2023-02-19T04:15:54;3.60;99.90
17845;DHT22;9047;53.486;10.218;2023-02-19T04:18:29;3.60;99.90
17845;DHT22;9047;53.486;10.218;2023-02-19T04:21:09;3.60;99.90
17845;DHT22;9047;53.486;10.218;2023-02-19T04:23:41;3.60;99.90
17845;DHT22;9047;53.486;10.218;2023-02-19T04:26:12;3.60;99.90
17845;DHT22;9047;53.486;10.218;2023-02-19T04:28:43;3.50;99.90
17845;DHT22;9047;53.486;10.218;2023-02-19T04:31:10;3.60;99.90
17845;DHT22;9047;53.486;10.218;2023-02-19T04:33:41;3.60;99.90
17845;DHT22;9047;53.486;10.218;2023-02-19T04:36:13;3.50;99.90
17845;DHT22;9047;53.486;10.218;2023-02-19T04:38:42;3.50;99.90
17845;DHT22;9047;53.486;10.218;2023-02-19T04:41:11;3.50;99.90
17845;DHT22;9047;53.486;10.218;2023-02-19T04:43:41;3.50;99.90
17845;DHT22;9047;53.486;10.218;2023-02-19T04:46:09;3.50;99.90
17845;DHT22;9047;53.486;10.218;2023-02-19T04:48:39;3.60;99.90
17845;DHT22;9047;53.486;10.218;2023-02-19T04:51:08;3.50;99.90
17845;DHT22;9047;53.486;10.218;2023-02-19T04:53:41;3.60;99.90
17845;DHT22;9047;53.486;10.218;2023-02-19T04:56:10;3.60;99.90
17845;DHT22;9047;53.486;10.218;2023-02-19T04:58:39;3.60;99.90
17845;DHT22;9047;53.486;10.218;2023-02-19T05:01:08;3.50;99.90
17845;DHT22;9047;53.486;10.218;2023-02-19T05:03:35;3.50;99.90
17845;DHT22;9047;53.486;10.218;2023-02-19T05:06:03;3.50;99.90
17845;DHT22;9047;53.486;10.218;2023-02-19T05:08:31;3.50;99.90
17845;DHT22;9047;53.486;10.218;2023-02-19T05:11:02;3.50;99.90
17845;DHT22;9047;53.486;10.218;2023-02-19T05:13:31;3.50;99.90
17845;DHT22;9047;53.486;10.218;2023-02-19T05:16:01;3.40;99.90
17845;DHT22;9047;53.486;10.218;2023-02-19T05:18:33;3.40;99.90
17845;DHT22;9047;53.486;10.218;2023-02-19T05:21:02;3.40;99.90
17845;DHT22;9047;53.486;10.218;2023-02-19T05:23:30;3.40;99.90
17845;DHT22;9047;53.486;10.218;2023-02-19T05:26:11;3.40;99.90
17845;DHT22;9047;53.486;10.218;2023-02-19T05:28:47;3.40;99.90
17845;DHT22;9047;53.486;10.218;2023-02-19T05:31:20;3.40;99.90
17845;DHT22;9047;53.486;10.218;2023-02-19T05:33:47;3.50;99.90
17845;DHT22;9047;53.486;10.218;2023-02-19T05:36:20;3.30;99.90
17845;DHT22;9047;53.486;10.218;2023-02-19T05:38:52;3.30;99.90
17845;DHT22;9047;53.486;10.218;2023-02-19T05:41:27;3.20;99.90
17845;DHT22;9047;53.486;10.218;2023-02-19T05:43:58;3.20;99.90
17845;DHT22;9047;53.486;10.218;2023-02-19T05:46:31;3.10;99.90
17845;DHT22;9047;53.486;10.218;2023-02-19T05:48:59;3.00;99.90
17845;DHT22;9047;53.486;10.218;2023-02-19T05:51:31;3.00;99.90
17845;DHT22;9047;53.486;10.218;2023-02-19T05:53:59;2.80;99.90
17845;DHT22;9047;53.486;10.218;2023-02-19T05:56:32;2.90;99.90
17845;DHT22;9047;53.486;10.218;2023-02-19T05:59:02;2.90;99.90
17845;DHT22;9047;53.486;10.218;2023-02-19T06:01:31;2.90;99.90
17845;DHT22;9047;53.486;10.218;2023-02-19T06:03:59;2.80;99.90
17845;DHT22;9047;53.486;10.218;2023-02-19T06:06:31;2.70;99.90
17845;DHT22;9047;53.486;10.218;2023-02-19T06:08:59;2.70;99.90
17845;DHT22;9047;53.486;10.218;2023-02-19T06:11:35;2.70;99.90
17845;DHT22;9047;53.486;10.218;2023-02-19T06:14:06;2.70;99.90
17845;DHT22;9047;53.486;10.218;2023-02-19T06:16:36;2.70;99.90
17845;DHT22;9047;53.486;10.218;2023-02-19T06:19:05;2.60;99.90
17845;DHT22;9047;53.486;10.218;2023-02-19T06:21:40;2.60;99.90
17845;DHT22;9047;53.486;10.218;2023-02-19T06:24:08;2.60;99.90
17845;DHT22;9047;53.486;10.218;2023-02-19T06:26:40;2.60;99.90
17845;DHT22;9047;53.486;10.218;2023-02-19T06:29:09;2.60;99.90
17845;DHT22;9047;53.486;10.218;2023-02-19T06:31:38;2.60;99.90
17845;DHT22;9047;53.486;10.218;2023-02-19T06:34:05;2.70;99.90
17845;DHT22;9047;53.486;10.218;2023-02-19T06:36:36;2.70;99.90
17845;DHT22;9047;53.486;10.218;2023-02-19T06:39:04;2.70;99.90
17845;DHT22;9047;53.486;10.218;2023-02-19T06:41:34;2.70;99.90
17845;DHT22;9047;53.486;10.218;2023-02-19T06:44:08;2.70;99.90
17845;DHT22;9047;53.486;10.218;2023-02-19T06:46:46;2.80;99.90
17845;DHT22;9047;53.486;10.218;2023-02-19T06:49:28;2.70;99.90
17845;DHT22;9047;53.486;10.218;2023-02-19T06:52:06;2.80;99.90
17845;DHT22;9047;53.486;10.218;2023-02-19T06:54:41;2.80;99.90
17845;DHT22;9047;53.486;10.218;2023-02-19T06:57:12;2.80;99.90
17845;DHT22;9047;53.486;10.218;2023-02-19T06:59:45;2.80;99.90
17845;DHT22;9047;53.486;10.218;2023-02-19T07:02:16;2.80;99.90
17845;DHT22;9047;53.486;10.218;2023-02-19T07:04:43;2.80;99.90
17845;DHT22;9047;53.486;10.218;2023-02-19T07:07:14;2.90;99.90
17845;DHT22;9047;53.486;10.218;2023-02-19T07:09:44;2.90;99.90
17845;DHT22;9047;53.486;10.218;2023-02-19T07:12:12;2.90;99.90
17845;DHT22;9047;53.486;10.218;2023-02-19T07:15:03;3.00;99.90
17845;DHT22;9047;53.486;10.218;2023-02-19T07:17:35;2.90;99.90
17845;DHT22;9047;53.486;10.218;2023-02-19T07:20:05;2.90;99.90
17845;DHT22;9047;53.486;10.218;2023-02-19T07:22:34;2.90;99.90
17845;DHT22;9047;53.486;10.218;2023-02-19T07:25:05;3.00;99.90
17845;DHT22;9047;53.486;10.218;2023-02-19T07:27:34;3.00;99.90
17845;DHT22;9047;53.486;10.218;2023-02-19T07:30:06;3.10;99.90
17845;DHT22;9047;53.486;10.218;2023-02-19T07:32:43;3.10;99.90
17845;DHT22;9047;53.486;10.218;2023-02-19T07:35:25;3.20;99.90
17845;DHT22;9047;53.486;10.218;2023-02-19T07:37:57;3.30;99.90
17845;DHT22;9047;53.486;10.218;2023-02-19T07:40:34;3.30;99.90
17845;DHT22;9047;53.486;10.218;2023-02-19T07:43:06;3.40;99.90
17845;DHT22;9047;53.486;10.218;2023-02-19T07:45:38;3.50;99.90
17845;DHT22;9047;53.486;10.218;2023-02-19T07:48:39;3.50;99.90
17845;DHT22;9047;53.486;10.218;2023-02-19T07:51:12;3.60;99.90
17845;DHT22;9047;53.486;10.218;2023-02-19T07:53:42;3.70;99.90
17845;DHT22;9047;53.486;10.218;2023-02-19T07:56:13;3.90;99.90
17845;DHT22;9047;53.486;10.218;2023-02-19T07:58:43;3.90;99.90
17845;DHT22;9047;53.486;10.218;2023-02-19T08:01:22;4.00;99.90
17845;DHT22;9047;53.486;10.218;2023-02-19T08:04:11;4.10;99.90
17845;DHT22;9047;53.486;10.218;2023-02-19T08:06:42;4.10;99.90
17845;DHT22;9047;53.486;10.218;2023-02-19T08:09:14;4.00;99.90
17845;DHT22;9047;53.486;10.218;2023-02-19T08:11:43;4.10;99.90
17845;DHT22;9047;53.486;10.218;2023-02-19T08:14:29;4.10;99.90
17845;DHT22;9047;53.486;10.218;2023-02-19T08:17:01;4.00;99.90
17845;DHT22;9047;53.486;10.218;2023-02-19T08:19:28;3.90;99.90
17845;DHT22;9047;53.486;10.218;2023-02-19T08:21:56;3.90;99.90
17845;DHT22;9047;53.486;10.218;2023-02-19T08:24:23;3.90;99.90
17845;DHT22;9047;53.486;10.218;2023-02-19T08:26:56;3.90;99.90
17845;DHT22;9047;53.486;10.218;2023-02-19T08:29:25;4.00;99.90
17845;DHT22;9047;53.486;10.218;2023-02-19T08:31:55;4.10;99.90
17845;DHT22;9047;53.486;10.218;2023-02-19T08:34:28;4.20;99.90
17845;DHT22;9047;53.486;10.218;2023-02-19T08:36:58;4.30;99.90
17845;DHT22;9047;53.486;10.218;2023-02-19T08:39:29;4.40;99.90
17845;DHT22;9047;53.486;10.218;2023-02-19T08:42:03;4.50;99.90
17845;DHT22;9047;53.486;10.218;2023-02-19T08:44:43;4.50;99.90
17845;DHT22;9047;53.486;10.218;2023-02-19T08:47:15;4.60;99.90
17845;DHT22;9047;53.486;10.218;2023-02-19T08:49:46;4.70;99.90
17845;DHT22;9047;53.486;10.218;2023-02-19T08:52:14;4.70;99.90
17845;DHT22;9047;53.486;10.218;2023-02-19T08:54:43;4.80;99.90
17845;DHT22;9047;53.486;10.218;2023-02-19T08:57:11;4.90;99.90
17845;DHT22;9047;53.486;10.218;2023-02-19T08:59:41;5.10;99.90
17845;DHT22;9047;53.486;10.218;2023-02-19T09:02:09;5.00;99.90
17845;DHT22;9047;53.486;10.218;2023-02-19T09:04:41;5.00;99.90
17845;DHT22;9047;53.486;10.218;2023-02-19T09:07:12;5.10;99.90
17845;DHT22;9047;53.486;10.218;2023-02-19T09:09:40;5.20;99.90
17845;DHT22;9047;53.486;10.218;2023-02-19T09:12:12;5.20;99.90
17845;DHT22;9047;53.486;10.218;2023-02-19T09:14:39;5.30;99.90
17845;DHT22;9047;53.486;10.218;2023-02-19T09:17:17;5.40;99.90
17845;DHT22;9047;53.486;10.218;2023-02-19T09:19:46;5.50;99.90
17845;DHT22;9047;53.486;10.218;2023-02-19T09:22:19;5.50;99.90
17845;DHT22;9047;53.486;10.218;2023-02-19T09:24:55;5.60;99.90
17845;DHT22;9047;53.486;10.218;2023-02-19T09:27:22;5.60;99.90
17845;DHT22;9047;53.486;10.218;2023-02-19T09:29:49;5.70;99.90
17845;DHT22;9047;53.486;10.218;2023-02-19T09:32:17;5.80;99.90
17845;DHT22;9047;53.486;10.218;2023-02-19T09:34:45;5.90;99.90
17845;DHT22;9047;53.486;10.218;2023-02-19T09:37:18;5.90;99.90
17845;DHT22;9047;53.486;10.218;2023-02-19T09:39:46;6.00;99.90
17845;DHT22;9047;53.486;10.218;2023-02-19T09:42:17;6.10;99.90
17845;DHT22;9047;53.486;10.218;2023-02-19T09:44:49;6.10;99.90
17845;DHT22;9047;53.486;10.218;2023-02-19T09:47:19;6.20;99.90
17845;DHT22;9047;53.486;10.218;2023-02-19T09:49:47;6.30;99.90
17845;DHT22;9047;53.486;10.218;2023-02-19T09:52:25;6.40;99.90
17845;DHT22;9047;53.486;10.218;2023-02-19T09:54:56;6.40;99.90
17845;DHT22;9047;53.486;10.218;2023-02-19T09:57:29;6.50;99.90
17845;DHT22;9047;53.486;10.218;2023-02-19T10:00:03;6.60;99.90
17845;DHT22;9047;53.486;10.218;2023-02-19T10:02:34;6.70;99.90
17845;DHT22;9047;53.486;10.218;2023-02-19T10:05:02;6.80;99.90
17845;DHT22;9047;53.486;10.218;2023-02-19T10:07:36;6.80;99.90
17845;DHT22;9047;53.486;10.218;2023-02-19T10:10:24;6.90;99.90
17845;DHT22;9047;53.486;10.218;2023-02-19T10:12:58;6.80;99.90
17845;DHT22;9047;53.486;10.218;2023-02-19T10:15:29;6.80;99.90
17845;DHT22;9047;53.486;10.218;2023-02-19T10:17:58;6.70;99.90
17845;DHT22;9047;53.486;10.218;2023-02-19T10:20:26;6.70;99.90
17845;DHT22;9047;53.486;10.218;2023-02-19T10:23:00;6.90;99.90
17845;DHT22;9047;53.486;10.218;2023-02-19T10:25:31;7.00;99.90
17845;DHT22;9047;53.486;10.218;2023-02-19T10:27:59;7.10;99.90
17845;DHT22;9047;53.486;10.218;2023-02-19T10:30:31;7.20;99.90
17845;DHT22;9047;53.486;10.218;2023-02-19T10:33:08;7.30;99.90
17845;DHT22;9047;53.486;10.218;2023-02-19T10:35:37;7.40;99.90
17845;DHT22;9047;53.486;10.218;2023-02-19T10:38:19;7.50;99.90
17845;DHT22;9047;53.486;10.218;2023-02-19T10:40:48;7.50;99.90
17845;DHT22;9047;53.486;10.218;2023-02-19T10:43:21;7.70;99.90
17845;DHT22;9047;53.486;10.218;2023-02-19T10:45:56;7.90;99.90
17845;DHT22;9047;53.486;10.218;2023-02-19T10:48:30;8.00;99.90
17845;DHT22;9047;53.486;10.218;2023-02-19T10:51:08;8.00;99.90
17845;DHT22;9047;53.486;10.218;2023-02-19T10:53:44;7.90;99.90
17845;DHT22;9047;53.486;10.218;2023-02-19T10:56:14;8.00;99.90
17845;DHT22;9047;53.486;10.218;2023-02-19T10:58:43;8.00;99.90
17845;DHT22;9047;53.486;10.218;2023-02-19T11:01:17;8.00;99.90
17845;DHT22;9047;53.486;10.218;2023-02-19T11:03:48;8.00;99.90
17845;DHT22;9047;53.486;10.218;2023-02-19T11:06:39;8.00;99.90
17845;DHT22;9047;53.486;10.218;2023-02-19T11:09:23;7.90;99.90
17845;DHT22;9047;53.486;10.218;2023-02-19T11:11:53;7.90;99.90
17845;DHT22;9047;53.486;10.218;2023-02-19T11:14:23;7.90;99.90
17845;DHT22;9047;53.486;10.218;2023-02-19T11:16:53;8.10;99.90
17845;DHT22;9047;53.486;10.218;2023-02-19T11:19:31;8.20;99.90
17845;DHT22;9047;53.486;10.218;2023-02-19T11:22:01;8.30;99.90
17845;DHT22;9047;53.486;10.218;2023-02-19T11:24:32;8.50;99.90
17845;DHT22;9047;53.486;10.218;2023-02-19T11:27:03;8.60;99.90
17845;DHT22;9047;53.486;10.218;2023-02-19T11:29:32;8.60;99.90
17845;DHT22;9047;53.486;10.218;2023-02-19T11:32:22;8.70;99.90
17845;DHT22;9047;53.486;10.218;2023-02-19T11:37:35;8.70;99.90
17845;DHT22;9047;53.486;10.218;2023-02-19T11:40:04;8.70;99.90
17845;DHT22;9047;53.486;10.218;2023-02-19T11:42:43;8.80;99.90
17845;DHT22;9047;53.486;10.218;2023-02-19T11:45:28;8.90;99.90
17845;DHT22;9047;53.486;10.218;2023-02-19T11:48:19;8.90;99.90
17845;DHT22;9047;53.486;10.218;2023-02-19T11:50:56;9.00;99.90
17845;DHT22;9047;53.486;10.218;2023-02-19T11:53:29;9.00;99.90
17845;DHT22;9047;53.486;10.218;2023-02-19T11:56:17;9.20;99.90
17845;DHT22;9047;53.486;10.218;2023-02-19T11:58:56;9.30;99.90
17845;DHT22;9047;53.486;10.218;2023-02-19T12:01:35;9.40;99.90
17845;DHT22;9047;53.486;10.218;2023-02-19T12:04:26;9.40;99.90
17845;DHT22;9047;53.486;10.218;2023-02-19T12:07:05;9.40;99.90
17845;DHT22;9047;53.486;10.218;2023-02-19T12:09:46;9.50;99.90
17845;DHT22;9047;53.486;10.218;2023-02-19T12:12:53;9.50;99.90
17845;DHT22;9047;53.486;10.218;2023-02-19T12:15:44;9.60;99.90
17845;DHT22;9047;53.486;10.218;2023-02-19T12:18:36;9.60;99.90
17845;DHT22;9047;53.486;10.218;2023-02-19T12:21:17;9.60;99.90
17845;DHT22;9047;53.486;10.218;2023-02-19T12:24:07;9.50;99.90
17845;DHT22;9047;53.486;10.218;2023-02-19T12:26:43;9.40;99.90
17845;DHT22;9047;53.486;10.218;2023-02-19T12:35:33;9.40;99.90
17845;DHT22;9047;53.486;10.218;2023-02-19T12:38:16;9.40;99.90
17845;DHT22;9047;53.486;10.218;2023-02-19T12:40:57;9.40;99.90
17845;DHT22;9047;53.486;10.218;2023-02-19T12:43:36;9.40;99.90
17845;DHT22;9047;53.486;10.218;2023-02-19T12:46:09;9.50;99.90
17845;DHT22;9047;53.486;10.218;2023-02-19T12:48:42;9.50;99.90
17845;DHT22;9047;53.486;10.218;2023-02-19T12:51:18;9.40;99.90
17845;DHT22;9047;53.486;10.218;2023-02-19T12:53:51;9.50;99.90
17845;DHT22;9047;53.486;10.218;2023-02-19T12:56:23;9.50;99.90
17845;DHT22;9047;53.486;10.218;2023-02-19T12:58:56;9.50;99.90
17845;DHT22;9047;53.486;10.218;2023-02-19T13:01:29;9.60;99.90
17845;DHT22;9047;53.486;10.218;2023-02-19T13:04:15;9.70;99.90
17845;DHT22;9047;53.486;10.218;2023-02-19T13:06:48;9.80;99.90
17845;DHT22;9047;53.486;10.218;2023-02-19T13:09:21;9.90;99.90
17845;DHT22;9047;53.486;10.218;2023-02-19T13:11:55;9.90;99.90
17845;DHT22;9047;53.486;10.218;2023-02-19T13:14:27;9.90;99.90
17845;DHT22;9047;53.486;10.218;2023-02-19T13:16:59;9.70;99.90
17845;DHT22;9047;53.486;10.218;2023-02-19T13:19:29;9.60;99.90
17845;DHT22;9047;53.486;10.218;2023-02-19T13:22:04;9.50;99.90
17845;DHT22;9047;53.486;10.218;2023-02-19T13:24:50;9.30;99.90
17845;DHT22;9047;53.486;10.218;2023-02-19T13:27:41;9.20;99.90
17845;DHT22;9047;53.486;10.218;2023-02-19T13:30:29;9.00;99.90
17845;DHT22;9047;53.486;10.218;2023-02-19T13:33:10;9.00;99.90
17845;DHT22;9047;53.486;10.218;2023-02-19T13:36:21;9.00;99.90
17845;DHT22;9047;53.486;10.218;2023-02-19T13:38:50;9.00;99.90
17845;DHT22;9047;53.486;10.218;2023-02-19T13:41:27;9.00;99.90
17845;DHT22;9047;53.486;10.218;2023-02-19T13:43:59;9.10;99.90
17845;DHT22;9047;53.486;10.218;2023-02-19T13:46:35;9.10;99.90
17845;DHT22;9047;53.486;10.218;2023-02-19T13:52:40;9.10;99.90
17845;DHT22;9047;53.486;10.218;2023-02-19T13:55:48;9.20;99.90
17845;DHT22;9047;53.486;10.218;2023-02-19T14:04:42;9.50;99.90
17845;DHT22;9047;53.486;10.218;2023-02-19T14:07:27;9.60;99.90
17845;DHT22;9047;53.486;10.218;2023-02-19T14:10:01;9.50;99.90
17845;DHT22;9047;53.486;10.218;2023-02-19T14:12:33;9.50;99.90
17845;DHT22;9047;53.486;10.218;2023-02-19T14:18:41;9.50;99.90
17845;DHT22;9047;53.486;10.218;2023-02-19T14:21:15;9.40;99.90
17845;DHT22;9047;53.486;10.218;2023-02-19T14:23:51;9.40;99.90
17845;DHT22;9047;53.486;10.218;2023-02-19T14:26:22;9.30;99.90
17845;DHT22;9047;53.486;10.218;2023-02-19T14:29:02;9.40;99.90
17845;DHT22;9047;53.486;10.218;2023-02-19T14:31:34;9.40;99.90
17845;DHT22;9047;53.486;10.218;2023-02-19T14:34:04;9.30;99.90
17845;DHT22;9047;53.486;10.218;2023-02-19T14:36:46;9.30;99.90
17845;DHT22;9047;53.486;10.218;2023-02-19T14:39:21;9.20;99.90
17845;DHT22;9047;53.486;10.218;2023-02-19T14:41:56;9.10;99.90
17845;DHT22;9047;53.486;10.218;2023-02-19T14:44:36;9.10;99.90
17845;DHT22;9047;53.486;10.218;2023-02-19T14:47:07;9.00;99.90
17845;DHT22;9047;53.486;10.218;2023-02-19T14:49:40;9.00;99.90
17845;DHT22;9047;53.486;10.218;2023-02-19T14:52:15;9.00;99.90
17845;DHT22;9047;53.486;10.218;2023-02-19T14:54:50;9.10;99.90
17845;DHT22;9047;53.486;10.218;2023-02-19T14:57:23;9.10;99.90
17845;DHT22;9047;53.486;10.218;2023-02-19T14:59:53;9.10;99.90
17845;DHT22;9047;53.486;10.218;2023-02-19T15:02:24;9.00;99.90
17845;DHT22;9047;53.486;10.218;2023-02-19T15:04:54;8.90;99.90
17845;DHT22;9047;53.486;10.218;2023-02-19T15:07:28;8.90;99.90
17845;DHT22;9047;53.486;10.218;2023-02-19T15:10:00;8.80;99.90
17845;DHT22;9047;53.486;10.218;2023-02-19T15:12:48;8.70;99.90
17845;DHT22;9047;53.486;10.218;2023-02-19T15:15:21;8.60;99.90
17845;DHT22;9047;53.486;10.218;2023-02-19T15:21:21;8.50;99.90
17845;DHT22;9047;53.486;10.218;2023-02-19T15:23:55;8.40;99.90
17845;DHT22;9047;53.486;10.218;2023-02-19T15:26:34;8.30;99.90
17845;DHT22;9047;53.486;10.218;2023-02-19T15:29:10;8.30;99.90
17845;DHT22;9047;53.486;10.218;2023-02-19T15:31:46;8.20;99.90
17845;DHT22;9047;53.486;10.218;2023-02-19T15:34:16;8.10;99.90
17845;DHT22;9047;53.486;10.218;2023-02-19T15:36:46;8.00;99.90
17845;DHT22;9047;53.486;10.218;2023-02-19T15:39:37;8.00;99.90
17845;DHT22;9047;53.486;10.218;2023-02-19T15:42:09;7.90;99.90
17845;DHT22;9047;53.486;10.218;2023-02-19T15:44:45;7.80;99.90
17845;DHT22;9047;53.486;10.218;2023-02-19T15:47:26;7.70;99.90
17845;DHT22;9047;53.486;10.218;2023-02-19T15:50:07;7.60;99.90
17845;DHT22;9047;53.486;10.218;2023-02-19T15:52:43;7.50;99.90
17845;DHT22;9047;53.486;10.218;2023-02-19T15:55:23;7.40;99.90
17845;DHT22;9047;53.486;10.218;2023-02-19T15:57:56;7.30;99.90
17845;DHT22;9047;53.486;10.218;2023-02-19T16:00:44;7.20;99.90
17845;DHT22;9047;53.486;10.218;2023-02-19T16:03:19;7.10;99.90
17845;DHT22;9047;53.486;10.218;2023-02-19T16:05:59;7.00;99.90
17845;DHT22;9047;53.486;10.218;2023-02-19T16:08:29;7.00;99.90
17845;DHT22;9047;53.486;10.218;2023-02-19T16:11:26;6.90;99.90
17845;DHT22;9047;53.486;10.218;2023-02-19T16:14:15;6.90;99.90
17845;DHT22;9047;53.486;10.218;2023-02-19T16:16:46;6.90;99.90
17845;DHT22;9047;53.486;10.218;2023-02-19T16:19:20;6.80;99.90
17845;DHT22;9047;53.486;10.218;2023-02-19T16:21:50;6.80;99.90
17845;DHT22;9047;53.486;10.218;2023-02-19T16:24:34;6.80;99.90
17845;DHT22;9047;53.486;10.218;2023-02-19T16:27:28;6.80;99.90
17845;DHT22;9047;53.486;10.218;2023-02-19T16:29:57;6.80;99.90
17845;DHT22;9047;53.486;10.218;2023-02-19T16:32:44;6.80;99.90
17845;DHT22;9047;53.486;10.218;2023-02-19T16:35:36;6.70;99.90
17845;DHT22;9047;53.486;10.218;2023-02-19T16:38:12;6.60;99.90
17845;DHT22;9047;53.486;10.218;2023-02-19T16:41:10;6.60;99.90
17845;DHT22;9047;53.486;10.218;2023-02-19T16:43:43;6.50;99.90
17845;DHT22;9047;53.486;10.218;2023-02-19T16:46:11;6.40;99.90
17845;DHT22;9047;53.486;10.218;2023-02-19T16:48:40;6.40;99.90
17845;DHT22;9047;53.486;10.218;2023-02-19T16:51:37;6.30;99.90
17845;DHT22;9047;53.486;10.218;2023-02-19T16:54:06;6.30;99.90
17845;DHT22;9047;53.486;10.218;2023-02-19T16:56:36;6.30;99.90
17845;DHT22;9047;53.486;10.218;2023-02-19T16:59:05;6.30;99.90
17845;DHT22;9047;53.486;10.218;2023-02-19T17:01:33;6.20;99.90